• Join FlightAware (Why Join?)
  • Login
  • US Flag 
06:14PM EDT


 

Airport Tracker/Info


-or-


 

Live Flight TrackerFlight Track Log ✈ SWA127 ✈ 16-Apr-2013 ✈ KMCI - KHOU

Flight Track Log - Related Links

Times and Time Zones

All times are in EDT time to prevent confusion due to time zone crossing. See the SWA127 flight status page for this flight to view local times or setup timezone preferences in your user account.

Time Position Orientation Groundspeed Altitude Reporting Facility
EDT Latitude Longitude Course Direction KTS MPH feet Rate Location/Type
08:46AM 39.3167 -94.7167 346° North 147 169 1,600  Level Kansas City TRACON
08:47AM 39.3617 -94.7317 346° North 169 194 3,200 1,740 Climbing Kansas City Center
08:48AM 39.3561 -94.8033 264° West 252 290 5,300 2,640 Climbing Kansas City Center
08:49AM 39.2836 -94.8214 191° South 273 314 8,700 2,580 Climbing Kansas City Center
08:50AM 39.2172 -94.8389 192° South 254 292 10,700 2,520 Climbing Kansas City Center
08:51AM 39.1269 -94.8650 193° South 293 337 13,900 2,340 Climbing Kansas City Center
08:52AM 39.0500 -94.8856 192° South 293 337 15,600 1,500 Climbing Kansas City Center
08:53AM 38.9633 -94.9100 192° South 325 374 17,000 2,100 Climbing Kansas City Center
08:54AM 38.8628 -94.9381 192° South 324 373 20,000 2,160 Climbing Kansas City Center
08:55AM 38.7792 -94.9611 192° South 320 368 21,500 1,320 Climbing Kansas City Center
08:56AM 38.6747 -94.9894 192° South 343 395 22,800 1,140 Climbing Kansas City Center
08:57AM 38.5778 -95.0153 192° South 367 422 23,900 1,320 Climbing Kansas City Center
08:58AM 38.4778 -95.0425 192° South 380 437 25,600 1,200 Climbing Kansas City Center
08:59AM 38.3564 -95.0758 192° South 401 461 26,500 1,320 Climbing Kansas City Center
09:00AM 38.2486 -95.1042 192° South 409 471 28,300 1,860 Climbing Kansas City Center
09:01AM 38.1278 -95.1422 194° South 400 460 30,300 1,440 Climbing Kansas City Center
09:02AM 38.0256 -95.1775 195° South 396 456 31,300 1,200 Climbing Kansas City Center
09:03AM 37.9089 -95.2167 195° South 395 455 32,800 1,200 Climbing Kansas City Center
09:04AM 37.8028 -95.2556 196° South 396 456 33,900 960 Climbing Kansas City Center
09:05AM 37.6978 -95.2914 195° South 392 451 34,800 900 Climbing Kansas City Center
09:06AM 37.5914 -95.3247 194° South 391 450 35,800 540 Climbing Kansas City Center
09:07AM 37.4872 -95.3600 195° South 387 445 36,000 60 Climbing Kansas City Center
09:09AM 37.3831 -95.3953 195° South 387 445 36,000  Level Kansas City Center
09:10AM 37.2789 -95.4306 195° South 387 445 36,000  Level Kansas City Center
09:11AM 37.1764 -95.4647 195° South 383 441 36,000  Level Kansas City Center
09:12AM 37.0525 -95.5050 195° South 383 441 36,000  Level Kansas City Center
09:13AM 36.9492 -95.5397 195° South 383 441 36,000  Level Kansas City Center
09:14AM 36.8444 -95.5756 195° South 387 445 36,000  Level Kansas City Center
09:15AM 36.7369 -95.6108 195° South 395 455 36,000  Level Kansas City Center
09:16AM 36.6322 -95.6458 195° South 394 453 36,000  Level Kansas City Center
09:17AM 36.5272 -95.6803 195° South 394 453 36,000  Level Kansas City Center
09:18AM 36.4228 -95.7144 195° South 393 452 36,000  Level Kansas City Center
09:19AM 36.2969 -95.7556 195° South 394 453 36,000  Level Kansas City Center
09:20AM 36.1911 -95.7900 195° South 395 455 36,000  Level Kansas City Center
09:21AM 36.0858 -95.8264 196° South 394 453 36,000  Level Kansas City Center
09:22AM 35.9808 -95.8642 196° South 393 452 36,000  Level Kansas City Center
09:23AM 35.8758 -95.9000 195° South 392 451 36,000  Level Kansas City Center
09:24AM 35.7728 -95.9361 196° South 389 448 36,000  Level Kansas City Center
09:25AM 35.6689 -95.9719 196° South 386 444 36,000  Level Kansas City Center
09:26AM 35.5861 -96.0047 198° South 392 451 36,000  Level Fort Worth Center
09:27AM 35.4822 -96.0394 195° South 392 451 36,000  Level Fort Worth Center
09:28AM 35.3783 -96.0769 196° South 392 451 36,000  Level Fort Worth Center
09:29AM 35.2744 -96.1092 194° South 392 451 36,000  Level Fort Worth Center
09:30AM 35.1706 -96.1436 195° South 392 451 36,000  Level Fort Worth Center
09:31AM 35.0686 -96.1808 197° South 392 451 36,000  Level Fort Worth Center
09:32AM 34.9667 -96.2178 197° South 392 451 36,000  Level Fort Worth Center
09:33AM 34.8628 -96.2519 195° South 392 451 36,000  Level Fort Worth Center
09:34AM 34.7589 -96.2864 195° South 392 451 36,000  Level Fort Worth Center
09:35AM 34.6547 -96.3231 196° South 392 451 36,000  Level Fort Worth Center
09:36AM 34.5528 -96.3569 195° South 392 451 36,000  Level Fort Worth Center
09:37AM 34.4467 -96.3911 195° South 392 451 36,000  Level Fort Worth Center
09:38AM 34.3428 -96.4250 195° South 398 458 36,000  Level Fort Worth Center
09:39AM 34.2408 -96.4614 196° South 387 445 36,000  Level Fort Worth Center
09:40AM 34.1367 -96.4975 196° South 392 451 36,000  Level Fort Worth Center
09:41AM 34.0306 -96.5314 195° South 392 451 36,000  Level Fort Worth Center
09:42AM 33.9389 -96.5622 196° South 392 451 36,000  Level Fort Worth Center
09:43AM 33.8347 -96.5958 195° South 392 451 36,000  Level Fort Worth Center
09:44AM 33.7286 -96.6317 196° South 397 457 36,000  Level Fort Worth Center
09:45AM 33.6222 -96.6650 195° South 392 451 36,000  Level Fort Worth Center
09:46AM 33.5181 -96.7008 196° South 397 457 36,000  Level Fort Worth Center
09:47AM 33.4119 -96.7367 196° South 397 457 36,000  Level Fort Worth Center
09:48AM 33.2953 -96.7722 194° South 397 457 36,000  Level Fort Worth Center
09:49AM 33.1908 -96.8028 194° South 392 451 36,000  Level Fort Worth Center
09:50AM 33.0783 -96.7986 178° South 397 457 36,000  Level Fort Worth Center
09:51AM 32.9656 -96.7944 178° South 404 465 36,000  Level Fort Worth Center
09:52AM 32.8528 -96.7953 180° South 404 465 36,000  Level Fort Worth Center
09:53AM 32.7400 -96.7936 179° South 404 465 36,000  Level Fort Worth Center
09:54AM 32.6378 -96.7892 178° South 404 465 36,000  Level Fort Worth Center
09:55AM 32.5292 -96.7875 179° South 404 465 36,000  Level Fort Worth Center
09:56AM 32.4164 -96.7858 179° South 404 465 36,000  Level Fort Worth Center
09:57AM 32.3058 -96.7817 178° South 396 456 36,000  Level Fort Worth Center
09:58AM 32.1825 -96.7800 179° South 396 456 36,000  Level Fort Worth Center
09:59AM 32.0719 -96.7758 178° South 406 467 36,000  Level Fort Worth Center
10:00AM 31.9611 -96.7719 178° South 399 459 36,000  Level Fort Worth Center
10:01AM 31.8631 -96.7750 182° South 399 459 36,000  Level Fort Worth Center
10:02AM 31.7525 -96.7708 178° South 404 465 36,000  Level Fort Worth Center
10:03AM 31.6314 -96.7667 178° South 398 458 36,000  Level Fort Worth Center
10:04AM 31.5067 -96.7639 179° South 399 459 36,000  Level Houston Center
10:05AM 31.3956 -96.7606 179° South 395 455 36,000  Level Houston Center
10:06AM 31.2828 -96.7575 179° South 397 457 36,000 -900 Level Houston Center
10:07AM 31.1714 -96.7131 161° South 418 481 34,200 -2,520 Descending Houston Center
10:08AM 31.0603 -96.6553 156° South 429 494 30,900 -2,940 Descending Houston Center
10:09AM 30.9517 -96.5967 155° Southeast 425 489 28,200 -2,520 Descending Houston Center
10:10AM 30.8456 -96.5425 156° South 413 475 25,800 -2,280 Descending Houston Center
10:11AM 30.7472 -96.4897 155° Southeast 389 448 23,600 -2,220 Descending Houston Center
10:12AM 30.6489 -96.4383 156° South 381 438 21,300 -2,400 Descending Houston Center
10:13AM 30.5344 -96.3761 155° Southeast 385 443 18,700 -2,400 Descending Houston Center
10:14AM 30.4558 -96.3375 157° South 373 429 16,900 -2,280 Descending Houston Center
10:14AM 30.4011 -96.3094 156° South 356 410 15,500 -2,160 Descending Houston Center
10:15AM 30.3489 -96.2817 155° Southeast 356 410 14,300 -2,040 Descending Houston Center
10:15AM 30.3131 -96.2614 154° Southeast 346 398 13,400 -2,040 Descending Houston Center
10:16AM 30.2617 -96.2350 156° South 345 397 12,200 -2,220 Descending Houston Center
10:16AM 30.2319 -96.2197 156° South 341 392 11,400 -1,200 Descending Houston Center
10:17AM 30.1758 -96.1906 156° South 336 387 11,000 -420 Descending Houston Center
10:17AM 30.1356 -96.1703 156° South 335 386 11,000  Level Houston Center
10:18AM 30.0947 -96.1483 155° Southeast 336 387 11,000  Level Houston Center
10:19AM 30.0497 -96.1244 155° Southeast 337 388 11,000  Level Houston Center
10:19AM 29.9922 -96.0939 155° Southeast 337 388 11,000  Level Houston Center
10:20AM 29.9661 -96.0783 153° Southeast 333 383 11,000  Level Houston Center
10:20AM 29.9083 -96.0483 156° South 333 383 11,000  Level Houston Center
10:21AM 29.8717 -96.0289 155° Southeast 330 380 11,000 -240 Level Houston Center
10:21AM 29.8217 -96.0031 156° South 328 377 10,800 -660 Descending Houston Center
10:22AM 29.7967 -95.9892 154° Southeast 313 360 10,400 -1,260 Descending Houston Center
10:22AM 29.7483 -95.9589 151° Southeast 304 350 9,500 -1,380 Descending Houston Center
10:23AM 29.7272 -95.9369 138° Southeast 293 337 9,000 -1,500 Descending Houston Center
10:23AM 29.6872 -95.9011 142° Southeast 286 329 8,000 -1,380 Descending Houston Center
10:24AM 29.6264 -95.8478 143° Southeast 280 322 6,600 -1,020 Descending Houston Center
10:25AM 29.5714 -95.7947 140° Southeast 261 300 6,000 -300 Descending Houston Center
10:26AM 29.5911 -95.6947 77° East 287 330 6,000  Level Houston Center
10:28AM 29.6367 -95.6039 60° Northeast 290 334 6,000 -540 Level Houston Center
10:29AM 29.6861 -95.5447 46° Northeast 295 339 4,900 -660 Descending Houston Center
10:30AM 29.7358 -95.4875 45° Northeast 267 307 4,700 -780 Descending Houston Center
10:31AM 29.7683 -95.4392 52° Northeast 229 264 3,400 -1,260 Descending Houston Center
10:32AM 29.7444 -95.3964 123° Southeast 176 203 2,200 -840 Descending Houston Center
10:33AM 29.7108 -95.3569 134° Southeast 125 144 1,800 -420 Descending Houston Center
10:33AM 29.7108 -95.3569 134° Southeast 155 178 1,800 -720 Level Houston Center
10:34AM 29.6872 -95.3286 134° Southeast 118 136 1,100 -660 Descending Houston Center
10:35AM 29.6647 -95.3025 135° Southeast 126 145 500 -480 Descending Houston Center
10:36AM 29.6372 -95.2703 134° Southeast 124 143 100 -420 Descending Houston Center